sensor_id;sensor_type;location;lat;lon;timestamp;pressure;altitude;pressure_sealevel;temperature;humidity
64516;BME280;50891;37.380;-122.076;2022-11-11T00:01:42;101819.53;;;25.76;40.10
64516;BME280;50891;37.380;-122.076;2022-11-11T00:04:08;101818.69;;;25.76;40.20
64516;BME280;50891;37.380;-122.076;2022-11-11T00:06:34;101819.53;;;25.76;40.17
64516;BME280;50891;37.380;-122.076;2022-11-11T00:09:00;101823.03;;;25.77;40.18
64516;BME280;50891;37.380;-122.076;2022-11-11T00:11:26;101821.16;;;25.77;40.01
64516;BME280;50891;37.380;-122.076;2022-11-11T00:13:53;101824.91;;;25.76;39.95
64516;BME280;50891;37.380;-122.076;2022-11-11T00:16:19;101820.34;;;25.77;39.95
64516;BME280;50891;37.380;-122.076;2022-11-11T00:18:46;101827.81;;;25.75;40.07
64516;BME280;50891;37.380;-122.076;2022-11-11T00:21:31;101823.22;;;25.75;39.96
64516;BME280;50891;37.380;-122.076;2022-11-11T00:24:28;101826.16;;;25.74;39.89
64516;BME280;50891;37.380;-122.076;2022-11-11T00:27:14;101818.28;;;25.72;40.13
64516;BME280;50891;37.380;-122.076;2022-11-11T00:29:45;101819.31;;;25.71;39.98
64516;BME280;50891;37.380;-122.076;2022-11-11T00:32:12;101815.78;;;25.71;39.89
64516;BME280;50891;37.380;-122.076;2022-11-11T00:34:57;101817.03;;;25.68;39.84
64516;BME280;50891;37.380;-122.076;2022-11-11T00:37:43;101814.56;;;25.67;40.06
64516;BME280;50891;37.380;-122.076;2022-11-11T00:40:11;101814.13;;;25.63;40.07
64516;BME280;50891;37.380;-122.076;2022-11-11T00:42:38;101813.50;;;25.61;40.04
64516;BME280;50891;37.380;-122.076;2022-11-11T00:45:05;101819.06;;;25.59;40.01
64516;BME280;50891;37.380;-122.076;2022-11-11T00:47:31;101816.81;;;25.56;40.03
64516;BME280;50891;37.380;-122.076;2022-11-11T00:50:19;101814.94;;;25.57;40.06
64516;BME280;50891;37.380;-122.076;2022-11-11T00:53:08;101811.84;;;25.53;40.00
64516;BME280;50891;37.380;-122.076;2022-11-11T00:55:35;101811.22;;;25.51;40.15
64516;BME280;50891;37.380;-122.076;2022-11-11T00:58:01;101795.47;;;25.48;40.21
64516;BME280;50891;37.380;-122.076;2022-11-11T01:00:27;101795.84;;;25.45;40.03
64516;BME280;50891;37.380;-122.076;2022-11-11T01:02:53;101802.47;;;25.42;40.04
64516;BME280;50891;37.380;-122.076;2022-11-11T01:05:19;101800.03;;;25.41;40.17
64516;BME280;50891;37.380;-122.076;2022-11-11T01:07:48;101804.78;;;25.39;40.20
64516;BME280;50891;37.380;-122.076;2022-11-11T01:10:16;101804.97;;;25.37;40.23
64516;BME280;50891;37.380;-122.076;2022-11-11T01:13:02;101809.09;;;25.33;40.08
64516;BME280;50891;37.380;-122.076;2022-11-11T01:15:43;101807.66;;;25.31;40.15
64516;BME280;50891;37.380;-122.076;2022-11-11T01:18:11;101814.09;;;25.30;40.25
64516;BME280;50891;37.380;-122.076;2022-11-11T01:20:38;101809.94;;;25.27;40.18
64516;BME280;50891;37.380;-122.076;2022-11-11T01:23:04;101808.25;;;25.26;40.50
64516;BME280;50891;37.380;-122.076;2022-11-11T01:25:35;101805.78;;;25.25;40.21
64516;BME280;50891;37.380;-122.076;2022-11-11T01:28:03;101805.16;;;25.22;40.33
64516;BME280;50891;37.380;-122.076;2022-11-11T01:30:31;101805.34;;;25.21;40.30
64516;BME280;50891;37.380;-122.076;2022-11-11T01:32:58;101807.22;;;25.20;40.13
64516;BME280;50891;37.380;-122.076;2022-11-11T01:35:25;101807.41;;;25.19;40.21
64516;BME280;50891;37.380;-122.076;2022-11-11T01:37:51;101811.97;;;25.18;40.18
64516;BME280;50891;37.380;-122.076;2022-11-11T01:40:17;101814.00;;;25.16;40.30
64516;BME280;50891;37.380;-122.076;2022-11-11T01:43:13;101814.19;;;25.15;40.12
64516;BME280;50891;37.380;-122.076;2022-11-11T01:45:50;101818.97;;;25.13;39.95
64516;BME280;50891;37.380;-122.076;2022-11-11T01:48:41;101820.19;;;25.10;40.16
64516;BME280;50891;37.380;-122.076;2022-11-11T01:54:49;101818.34;;;25.04;40.16
64516;BME280;50891;37.380;-122.076;2022-11-11T01:57:24;101820.41;;;25.02;40.26
64516;BME280;50891;37.380;-122.076;2022-11-11T02:00:00;101820.59;;;25.00;40.14
64516;BME280;50891;37.380;-122.076;2022-11-11T02:02:36;101818.13;;;24.99;40.20
64516;BME280;50891;37.380;-122.076;2022-11-11T02:05:06;101820.38;;;24.95;40.21
64516;BME280;50891;37.380;-122.076;2022-11-11T02:07:56;101820.56;;;24.94;40.17
64516;BME280;50891;37.380;-122.076;2022-11-11T02:10:25;101823.66;;;24.91;40.17
64516;BME280;50891;37.380;-122.076;2022-11-11T02:12:52;101821.38;;;24.88;40.12
64516;BME280;50891;37.380;-122.076;2022-11-11T02:15:37;101815.56;;;24.84;40.21
64516;BME280;50891;37.380;-122.076;2022-11-11T02:18:04;101804.38;;;24.80;40.20
64516;BME280;50891;37.380;-122.076;2022-11-11T02:20:34;101805.63;;;24.78;40.25
64516;BME280;50891;37.380;-122.076;2022-11-11T02:23:12;101812.19;;;24.75;40.43
64516;BME280;50891;37.380;-122.076;2022-11-11T02:25:44;101807.41;;;24.71;40.36
64516;BME280;50891;37.380;-122.076;2022-11-11T02:28:12;101809.69;;;24.67;40.35
64516;BME280;50891;37.380;-122.076;2022-11-11T02:30:39;101811.75;;;24.65;40.45
64516;BME280;50891;37.380;-122.076;2022-11-11T02:33:06;101812.97;;;24.63;40.46
64516;BME280;50891;37.380;-122.076;2022-11-11T02:35:36;101810.09;;;24.64;40.41
64516;BME280;50891;37.380;-122.076;2022-11-11T02:38:05;101810.47;;;24.61;40.38
64516;BME280;50891;37.380;-122.076;2022-11-11T02:40:38;101809.03;;;24.58;40.45
64516;BME280;50891;37.380;-122.076;2022-11-11T02:43:25;101818.31;;;24.56;40.44
64516;BME280;50891;37.380;-122.076;2022-11-11T02:45:51;101817.69;;;24.54;40.55
64516;BME280;50891;37.380;-122.076;2022-11-11T02:48:17;101823.47;;;24.51;40.52
64516;BME280;50891;37.380;-122.076;2022-11-11T02:50:43;101829.41;;;24.46;40.54
64516;BME280;50891;37.380;-122.076;2022-11-11T02:53:10;101830.66;;;24.44;40.50
64516;BME280;50891;37.380;-122.076;2022-11-11T02:55:36;101825.66;;;24.40;40.42
64516;BME280;50891;37.380;-122.076;2022-11-11T02:58:02;101831.44;;;24.37;40.56
64516;BME280;50891;37.380;-122.076;2022-11-11T03:00:29;101822.94;;;24.34;40.58
64516;BME280;50891;37.380;-122.076;2022-11-11T03:02:55;101821.47;;;24.31;40.65
64516;BME280;50891;37.380;-122.076;2022-11-11T03:05:21;101820.19;;;24.27;40.74
64516;BME280;50891;37.380;-122.076;2022-11-11T03:07:48;101816.25;;;24.23;40.62
64516;BME280;50891;37.380;-122.076;2022-11-11T03:10:14;101824.72;;;24.20;40.58
64516;BME280;50891;37.380;-122.076;2022-11-11T03:12:41;101825.72;;;24.19;40.73
64516;BME280;50891;37.380;-122.076;2022-11-11T03:15:07;101825.06;;;24.17;40.75
64516;BME280;50891;37.380;-122.076;2022-11-11T03:17:34;101825.47;;;24.14;40.81
64516;BME280;50891;37.380;-122.076;2022-11-11T03:20:14;101826.88;;;24.10;40.81
64516;BME280;50891;37.380;-122.076;2022-11-11T03:23:07;101820.88;;;24.08;40.89
64516;BME280;50891;37.380;-122.076;2022-11-11T03:25:40;101827.28;;;24.07;40.87
64516;BME280;50891;37.380;-122.076;2022-11-11T03:28:15;101818.59;;;24.05;40.83
64516;BME280;50891;37.380;-122.076;2022-11-11T03:30:46;101833.25;;;24.02;40.68
64516;BME280;50891;37.380;-122.076;2022-11-11T03:33:13;101831.59;;;24.01;40.74
64516;BME280;50891;37.380;-122.076;2022-11-11T03:35:40;101826.41;;;24.00;40.70
64516;BME280;50891;37.380;-122.076;2022-11-11T03:38:10;101838.38;;;23.97;40.54
64516;BME280;50891;37.380;-122.076;2022-11-11T03:41:02;101836.09;;;23.94;40.74
64516;BME280;50891;37.380;-122.076;2022-11-11T03:43:31;101837.50;;;23.90;40.75
64516;BME280;50891;37.380;-122.076;2022-11-11T03:45:59;101842.25;;;23.88;40.81
64516;BME280;50891;37.380;-122.076;2022-11-11T03:48:27;101837.25;;;23.85;40.85
64516;BME280;50891;37.380;-122.076;2022-11-11T03:50:54;101834.75;;;23.83;40.88
64516;BME280;50891;37.380;-122.076;2022-11-11T03:53:20;101833.47;;;23.79;40.80
64516;BME280;50891;37.380;-122.076;2022-11-11T03:55:48;101832.19;;;23.75;40.95
64516;BME280;50891;37.380;-122.076;2022-11-11T03:58:15;101835.63;;;23.69;40.28
64516;BME280;50891;37.380;-122.076;2022-11-11T04:00:42;101831.03;;;23.63;40.51
64516;BME280;50891;37.380;-122.076;2022-11-11T04:03:14;101838.44;;;23.61;40.63
64516;BME280;50891;37.380;-122.076;2022-11-11T04:06:00;101827.06;;;23.59;40.51
64516;BME280;50891;37.380;-122.076;2022-11-11T04:08:46;101842.16;;;23.60;40.80
64516;BME280;50891;37.380;-122.076;2022-11-11T04:14:08;101847.72;;;23.58;40.83
64516;BME280;50891;37.380;-122.076;2022-11-11T04:17:10;101853.47;;;23.55;40.94
64516;BME280;50891;37.380;-122.076;2022-11-11T04:19:36;101853.66;;;23.53;40.93
64516;BME280;50891;37.380;-122.076;2022-11-11T04:22:20;101845.78;;;23.52;41.06
64516;BME280;50891;37.380;-122.076;2022-11-11T04:24:46;101851.34;;;23.50;41.15
64516;BME280;50891;37.380;-122.076;2022-11-11T04:27:31;101850.53;;;23.50;41.18
64516;BME280;50891;37.380;-122.076;2022-11-11T04:29:57;101848.84;;;23.49;41.29
64516;BME280;50891;37.380;-122.076;2022-11-11T04:32:23;101856.72;;;23.50;41.28
64516;BME280;50891;37.380;-122.076;2022-11-11T04:35:10;101847.22;;;23.48;41.37
64516;BME280;50891;37.380;-122.076;2022-11-11T04:37:44;101848.03;;;23.48;41.40
64516;BME280;50891;37.380;-122.076;2022-11-11T04:40:11;101847.56;;;23.45;41.59
64516;BME280;50891;37.380;-122.076;2022-11-11T04:42:56;101847.38;;;23.46;41.53
64516;BME280;50891;37.380;-122.076;2022-11-11T04:45:22;101854.63;;;23.46;41.48
64516;BME280;50891;37.380;-122.076;2022-11-11T04:48:10;101854.63;;;23.46;41.58
64516;BME280;50891;37.380;-122.076;2022-11-11T04:50:40;101843.88;;;23.46;41.52
64516;BME280;50891;37.380;-122.076;2022-11-11T04:53:10;101846.09;;;23.42;41.84
64516;BME280;50891;37.380;-122.076;2022-11-11T04:55:37;101857.47;;;23.44;41.71
64516;BME280;50891;37.380;-122.076;2022-11-11T04:58:24;101851.03;;;23.39;41.76
64516;BME280;50891;37.380;-122.076;2022-11-11T05:00:55;101851.47;;;23.42;41.70
64516;BME280;50891;37.380;-122.076;2022-11-11T05:03:21;101847.13;;;23.41;41.74
64516;BME280;50891;37.380;-122.076;2022-11-11T05:05:55;101843.41;;;23.42;41.58
64516;BME280;50891;37.380;-122.076;2022-11-11T05:08:48;101840.28;;;23.39;41.51
64516;BME280;50891;37.380;-122.076;2022-11-11T05:11:34;101850.22;;;23.38;41.61
64516;BME280;50891;37.380;-122.076;2022-11-11T05:14:03;101851.38;;;23.35;41.51
64516;BME280;50891;37.380;-122.076;2022-11-11T05:16:53;101859.00;;;23.32;41.29
64516;BME280;50891;37.380;-122.076;2022-11-11T05:19:49;101857.34;;;23.31;41.26
64516;BME280;50891;37.380;-122.076;2022-11-11T05:22:35;101850.50;;;23.28;41.01
64516;BME280;50891;37.380;-122.076;2022-11-11T05:25:03;101854.59;;;23.24;40.85
64516;BME280;50891;37.380;-122.076;2022-11-11T05:27:48;101859.50;;;23.21;40.90
64516;BME280;50891;37.380;-122.076;2022-11-11T05:30:15;101860.53;;;23.20;40.79
64516;BME280;50891;37.380;-122.076;2022-11-11T05:32:42;101859.88;;;23.18;40.78
64516;BME280;50891;37.380;-122.076;2022-11-11T05:35:09;101854.88;;;23.14;41.06
64516;BME280;50891;37.380;-122.076;2022-11-11T05:37:37;101854.03;;;23.14;41.10
64516;BME280;50891;37.380;-122.076;2022-11-11T05:40:04;101860.44;;;23.13;41.27
64516;BME280;50891;37.380;-122.076;2022-11-11T05:42:30;101861.66;;;23.10;41.26
64516;BME280;50891;37.380;-122.076;2022-11-11T05:44:57;101869.06;;;23.08;40.64
64516;BME280;50891;37.380;-122.076;2022-11-11T05:47:23;101862.22;;;23.06;39.92
64516;BME280;50891;37.380;-122.076;2022-11-11T05:49:49;101876.84;;;23.03;39.51
64516;BME280;50891;37.380;-122.076;2022-11-11T05:52:16;101861.09;;;23.00;39.53
64516;BME280;50891;37.380;-122.076;2022-11-11T05:54:43;101857.75;;;22.98;39.67
64516;BME280;50891;37.380;-122.076;2022-11-11T05:57:10;101865.16;;;22.96;40.03
64516;BME280;50891;37.380;-122.076;2022-11-11T05:59:37;101862.66;;;22.94;40.52
64516;BME280;50891;37.380;-122.076;2022-11-11T06:02:03;101872.19;;;22.97;40.49
64516;BME280;50891;37.380;-122.076;2022-11-11T06:04:29;101870.53;;;22.96;40.20
64516;BME280;50891;37.380;-122.076;2022-11-11T06:06:56;101874.22;;;22.95;39.98
64516;BME280;50891;37.380;-122.076;2022-11-11T06:09:22;101871.53;;;22.95;41.27
64516;BME280;50891;37.380;-122.076;2022-11-11T06:11:48;101874.03;;;22.97;40.76
64516;BME280;50891;37.380;-122.076;2022-11-11T06:14:14;101867.19;;;22.94;40.81
64516;BME280;50891;37.380;-122.076;2022-11-11T06:16:41;101869.25;;;22.92;40.34
64516;BME280;50891;37.380;-122.076;2022-11-11T06:19:07;101865.91;;;22.90;40.62
64516;BME280;50891;37.380;-122.076;2022-11-11T06:21:33;101861.38;;;22.90;39.91
64516;BME280;50891;37.380;-122.076;2022-11-11T06:24:19;101867.94;;;22.88;39.92
64516;BME280;50891;37.380;-122.076;2022-11-11T06:26:45;101871.00;;;22.85;40.10
64516;BME280;50891;37.380;-122.076;2022-11-11T06:29:11;101873.03;;;22.83;39.68
64516;BME280;50891;37.380;-122.076;2022-11-11T06:31:37;101864.72;;;22.78;39.76
64516;BME280;50891;37.380;-122.076;2022-11-11T06:34:04;101876.66;;;22.75;39.82
64516;BME280;50891;37.380;-122.076;2022-11-11T06:36:30;101870.81;;;22.71;39.69
64516;BME280;50891;37.380;-122.076;2022-11-11T06:38:56;101868.50;;;22.68;39.81
64516;BME280;50891;37.380;-122.076;2022-11-11T06:41:22;101871.19;;;22.68;39.48
64516;BME280;50891;37.380;-122.076;2022-11-11T06:43:50;101869.50;;;22.67;39.34
64516;BME280;50891;37.380;-122.076;2022-11-11T06:46:21;101868.69;;;22.67;39.27
64516;BME280;50891;37.380;-122.076;2022-11-11T06:48:48;101868.84;;;22.65;40.05
64516;BME280;50891;37.380;-122.076;2022-11-11T06:51:14;101883.31;;;22.64;39.44
64516;BME280;50891;37.380;-122.076;2022-11-11T06:53:41;101865.53;;;22.63;39.61
64516;BME280;50891;37.380;-122.076;2022-11-11T06:56:08;101865.72;;;22.62;40.06
64516;BME280;50891;37.380;-122.076;2022-11-11T06:58:37;101868.22;;;22.63;40.04
64516;BME280;50891;37.380;-122.076;2022-11-11T07:01:04;101868.69;;;22.67;41.24
64516;BME280;50891;37.380;-122.076;2022-11-11T07:03:31;101873.88;;;22.68;40.42
64516;BME280;50891;37.380;-122.076;2022-11-11T07:06:00;101872.19;;;22.67;40.44
64516;BME280;50891;37.380;-122.076;2022-11-11T07:08:26;101863.69;;;22.64;40.00
64516;BME280;50891;37.380;-122.076;2022-11-11T07:10:52;101872.09;;;22.61;39.69
64516;BME280;50891;37.380;-122.076;2022-11-11T07:13:19;101878.66;;;22.58;39.46
64516;BME280;50891;37.380;-122.076;2022-11-11T07:15:45;101881.72;;;22.55;38.99
64516;BME280;50891;37.380;-122.076;2022-11-11T07:18:11;101875.72;;;22.53;38.71
64516;BME280;50891;37.380;-122.076;2022-11-11T07:20:38;101875.72;;;22.53;39.46
64516;BME280;50891;37.380;-122.076;2022-11-11T07:23:05;101869.53;;;22.52;39.29
64516;BME280;50891;37.380;-122.076;2022-11-11T07:25:32;101876.34;;;22.55;39.47
64516;BME280;50891;37.380;-122.076;2022-11-11T07:27:58;101864.97;;;22.53;39.48
64516;BME280;50891;37.380;-122.076;2022-11-11T07:30:25;101858.63;;;22.54;39.35
64516;BME280;50891;37.380;-122.076;2022-11-11T07:32:52;101870.34;;;22.53;39.63
64516;BME280;50891;37.380;-122.076;2022-11-11T07:35:19;101868.88;;;22.50;39.24
64516;BME280;50891;37.380;-122.076;2022-11-11T07:37:46;101867.00;;;22.51;39.12
64516;BME280;50891;37.380;-122.076;2022-11-11T07:40:13;101870.72;;;22.50;38.62
64516;BME280;50891;37.380;-122.076;2022-11-11T07:42:41;101867.75;;;22.45;38.05
64516;BME280;50891;37.380;-122.076;2022-11-11T07:45:09;101876.34;;;22.40;37.60
64516;BME280;50891;37.380;-122.076;2022-11-11T07:47:35;101857.94;;;22.37;38.11
64516;BME280;50891;37.380;-122.076;2022-11-11T07:50:03;101863.50;;;22.36;38.71
64516;BME280;50891;37.380;-122.076;2022-11-11T07:52:30;101862.66;;;22.35;38.46
64516;BME280;50891;37.380;-122.076;2022-11-11T07:54:56;101863.03;;;22.32;37.82
64516;BME280;50891;37.380;-122.076;2022-11-11T07:57:23;101859.22;;;22.26;38.32
64516;BME280;50891;37.380;-122.076;2022-11-11T07:59:49;101861.44;;;22.38;38.82
64516;BME280;50891;37.380;-122.076;2022-11-11T08:02:15;101862.75;;;22.42;38.62
64516;BME280;50891;37.380;-122.076;2022-11-11T08:04:41;101862.56;;;22.43;38.87
64516;BME280;50891;37.380;-122.076;2022-11-11T08:07:08;101856.19;;;22.44;39.50
64516;BME280;50891;37.380;-122.076;2022-11-11T08:09:34;101852.69;;;22.44;39.62
64516;BME280;50891;37.380;-122.076;2022-11-11T08:12:00;101860.06;;;22.42;39.92
64516;BME280;50891;37.380;-122.076;2022-11-11T08:14:44;101853.06;;;22.41;39.36
64516;BME280;50891;37.380;-122.076;2022-11-11T08:17:11;101851.56;;;22.38;39.39
64516;BME280;50891;37.380;-122.076;2022-11-11T08:19:37;101858.97;;;22.36;39.43
64516;BME280;50891;37.380;-122.076;2022-11-11T08:22:03;101856.66;;;22.33;39.94
64516;BME280;50891;37.380;-122.076;2022-11-11T08:24:29;101858.84;;;22.29;39.88
64516;BME280;50891;37.380;-122.076;2022-11-11T08:26:56;101851.19;;;22.26;40.39
64516;BME280;50891;37.380;-122.076;2022-11-11T08:29:22;101855.41;;;22.21;40.51
64516;BME280;50891;37.380;-122.076;2022-11-11T08:31:50;101859.56;;;22.23;40.22
64516;BME280;50891;37.380;-122.076;2022-11-11T08:34:16;101846.38;;;22.22;39.67
64516;BME280;50891;37.380;-122.076;2022-11-11T08:36:42;101848.38;;;22.20;39.65
64516;BME280;50891;37.380;-122.076;2022-11-11T08:39:09;101835.16;;;22.18;38.56
64516;BME280;50891;37.380;-122.076;2022-11-11T08:41:36;101835.53;;;22.15;38.54
64516;BME280;50891;37.380;-122.076;2022-11-11T08:44:02;101831.16;;;22.14;38.07
64516;BME280;50891;37.380;-122.076;2022-11-11T08:46:31;101834.22;;;22.11;37.41
64516;BME280;50891;37.380;-122.076;2022-11-11T08:48:57;101829.41;;;22.06;38.05
64516;BME280;50891;37.380;-122.076;2022-11-11T08:51:23;101829.56;;;22.05;37.22
64516;BME280;50891;37.380;-122.076;2022-11-11T08:53:49;101823.94;;;22.00;37.65
64516;BME280;50891;37.380;-122.076;2022-11-11T08:56:15;101822.44;;;21.97;36.89
64516;BME280;50891;37.380;-122.076;2022-11-11T08:58:41;101822.00;;;21.94;36.70
64516;BME280;50891;37.380;-122.076;2022-11-11T09:01:12;101830.38;;;21.91;36.52
64516;BME280;50891;37.380;-122.076;2022-11-11T09:03:39;101828.44;;;21.84;36.07
64516;BME280;50891;37.380;-122.076;2022-11-11T09:06:08;101818.91;;;21.82;36.29
64516;BME280;50891;37.380;-122.076;2022-11-11T09:08:34;101822.75;;;21.79;36.27
64516;BME280;50891;37.380;-122.076;2022-11-11T09:11:01;101824.16;;;21.75;36.11
64516;BME280;50891;37.380;-122.076;2022-11-11T09:13:27;101826.19;;;21.73;36.29
64516;BME280;50891;37.380;-122.076;2022-11-11T09:15:54;101817.66;;;21.70;36.08
64516;BME280;50891;37.380;-122.076;2022-11-11T09:18:20;101820.69;;;21.66;35.72
64516;BME280;50891;37.380;-122.076;2022-11-11T09:20:46;101820.22;;;21.63;35.90
64516;BME280;50891;37.380;-122.076;2022-11-11T09:23:12;101811.72;;;21.59;35.83
64516;BME280;50891;37.380;-122.076;2022-11-11T09:25:38;101822.13;;;21.54;35.39
64516;BME280;50891;37.380;-122.076;2022-11-11T09:28:04;101819.13;;;21.49;35.41
64516;BME280;50891;37.380;-122.076;2022-11-11T09:30:30;101825.69;;;21.46;35.53
64516;BME280;50891;37.380;-122.076;2022-11-11T09:33:03;101821.72;;;21.42;35.49
64516;BME280;50891;37.380;-122.076;2022-11-11T09:35:30;101817.69;;;21.38;35.26
64516;BME280;50891;37.380;-122.076;2022-11-11T09:37:58;101816.38;;;21.34;35.20
64516;BME280;50891;37.380;-122.076;2022-11-11T09:40:27;101819.75;;;21.28;35.39
64516;BME280;50891;37.380;-122.076;2022-11-11T09:43:20;101823.28;;;21.29;35.67
64516;BME280;50891;37.380;-122.076;2022-11-11T09:51:51;101807.19;;;21.05;35.10
64516;BME280;50891;37.380;-122.076;2022-11-11T09:57:13;101817.31;;;20.87;34.97
64516;BME280;50891;37.380;-122.076;2022-11-11T09:59:49;101811.00;;;20.80;34.95
64516;BME280;50891;37.380;-122.076;2022-11-11T10:02:41;101807.66;;;20.70;35.25
64516;BME280;50891;37.380;-122.076;2022-11-11T10:05:10;101798.00;;;20.60;35.28
64516;BME280;50891;37.380;-122.076;2022-11-11T10:07:48;101799.03;;;20.51;35.55
64516;BME280;50891;37.380;-122.076;2022-11-11T10:10:57;101807.75;;;20.45;35.72
64516;BME280;50891;37.380;-122.076;2022-11-11T10:13:20;101813.09;;;20.37;36.50
64516;BME280;50891;37.380;-122.076;2022-11-11T10:19:07;101813.13;;;20.20;36.18
64516;BME280;50891;37.380;-122.076;2022-11-11T10:21:15;101808.47;;;20.14;35.68
64516;BME280;50891;37.380;-122.076;2022-11-11T10:23:48;101798.63;;;20.07;36.53
64516;BME280;50891;37.380;-122.076;2022-11-11T10:26:24;101793.97;;;20.00;36.36
64516;BME280;50891;37.380;-122.076;2022-11-11T10:28:57;101799.97;;;19.94;36.94
64516;BME280;50891;37.380;-122.076;2022-11-11T10:31:24;101801.31;;;19.90;36.07
64516;BME280;50891;37.380;-122.076;2022-11-11T10:34:12;101801.81;;;19.86;36.21
64516;BME280;50891;37.380;-122.076;2022-11-11T10:36:46;101798.81;;;19.81;36.02
64516;BME280;50891;37.380;-122.076;2022-11-11T10:39:23;101801.16;;;19.75;35.91
64516;BME280;50891;37.380;-122.076;2022-11-11T10:41:52;101794.16;;;19.74;36.07
64516;BME280;50891;37.380;-122.076;2022-11-11T10:44:26;101783.13;;;19.69;36.32
64516;BME280;50891;37.380;-122.076;2022-11-11T10:47:12;101785.28;;;19.66;35.80
64516;BME280;50891;37.380;-122.076;2022-11-11T10:50:06;101789.44;;;19.60;36.49
64516;BME280;50891;37.380;-122.076;2022-11-11T10:52:35;101781.09;;;19.55;37.12
64516;BME280;50891;37.380;-122.076;2022-11-11T10:55:27;101778.63;;;19.53;36.96
64516;BME280;50891;37.380;-122.076;2022-11-11T10:59:07;101786.09;;;19.50;36.46
64516;BME280;50891;37.380;-122.076;2022-11-11T11:01:01;101776.06;;;19.44;37.07
64516;BME280;50891;37.380;-122.076;2022-11-11T11:03:46;101782.78;;;19.40;37.24
64516;BME280;50891;37.380;-122.076;2022-11-11T11:06:25;101776.91;;;19.36;37.02
64516;BME280;50891;37.380;-122.076;2022-11-11T11:09:10;101770.22;;;19.32;36.74
64516;BME280;50891;37.380;-122.076;2022-11-11T11:11:43;101772.56;;;19.27;36.80
64516;BME280;50891;37.380;-122.076;2022-11-11T11:14:21;101769.56;;;19.22;37.21
64516;BME280;50891;37.380;-122.076;2022-11-11T11:16:51;101769.72;;;19.20;37.36
64516;BME280;50891;37.380;-122.076;2022-11-11T11:19:25;101769.91;;;19.19;37.37
64516;BME280;50891;37.380;-122.076;2022-11-11T11:21:59;101773.06;;;19.14;38.50
64516;BME280;50891;37.380;-122.076;2022-11-11T11:24:28;101768.88;;;19.11;37.51
64516;BME280;50891;37.380;-122.076;2022-11-11T11:26:56;101764.03;;;19.07;37.47
64516;BME280;50891;37.380;-122.076;2022-11-11T11:29:42;101769.53;;;19.05;37.94
64516;BME280;50891;37.380;-122.076;2022-11-11T11:32:17;101760.03;;;19.03;37.47
64516;BME280;50891;37.380;-122.076;2022-11-11T11:34:47;101763.00;;;19.00;37.36
64516;BME280;50891;37.380;-122.076;2022-11-11T11:37:14;101767.69;;;18.98;37.70
64516;BME280;50891;37.380;-122.076;2022-11-11T11:39:40;101758.47;;;18.92;37.69
64516;BME280;50891;37.380;-122.076;2022-11-11T11:42:07;101766.34;;;18.93;37.79
64516;BME280;50891;37.380;-122.076;2022-11-11T11:44:35;101759.66;;;18.89;37.53
64516;BME280;50891;37.380;-122.076;2022-11-11T11:53:41;101763.13;;;18.82;37.78
64516;BME280;50891;37.380;-122.076;2022-11-11T11:59:18;101769.88;;;18.76;37.76
64516;BME280;50891;37.380;-122.076;2022-11-11T12:10:42;101759.84;;;18.62;38.22
64516;BME280;50891;37.380;-122.076;2022-11-11T12:22:33;101754.78;;;18.50;37.90
64516;BME280;50891;37.380;-122.076;2022-11-11T12:30:32;101755.59;;;18.43;38.42
64516;BME280;50891;37.380;-122.076;2022-11-11T12:41:17;101755.88;;;18.31;38.64
64516;BME280;50891;37.380;-122.076;2022-11-11T12:46:25;101766.72;;;18.30;38.08
64516;BME280;50891;37.380;-122.076;2022-11-11T12:57:10;101759.66;;;18.21;38.24
64516;BME280;50891;37.380;-122.076;2022-11-11T13:00:02;101765.28;;;18.18;38.27
64516;BME280;50891;37.380;-122.076;2022-11-11T13:05:33;101763.94;;;18.14;38.16
64516;BME280;50891;37.380;-122.076;2022-11-11T13:11:06;101767.09;;;18.09;38.03
64516;BME280;50891;37.380;-122.076;2022-11-11T13:14:04;101761.91;;;18.07;38.26
64516;BME280;50891;37.380;-122.076;2022-11-11T13:16:34;101760.41;;;18.05;38.05
64516;BME280;50891;37.380;-122.076;2022-11-11T13:19:14;101763.19;;;18.03;38.22
64516;BME280;50891;37.380;-122.076;2022-11-11T13:21:56;101747.53;;;18.00;38.08
64516;BME280;50891;37.380;-122.076;2022-11-11T13:24:24;101745.03;;;17.99;38.56
64516;BME280;50891;37.380;-122.076;2022-11-11T13:38:33;101733.22;;;18.01;37.51
64516;BME280;50891;37.380;-122.076;2022-11-11T13:41:03;101735.06;;;18.01;37.70
64516;BME280;50891;37.380;-122.076;2022-11-11T13:45:57;101742.03;;;18.02;37.35
64516;BME280;50891;37.380;-122.076;2022-11-11T13:48:37;101740.94;;;18.04;37.15
64516;BME280;50891;37.380;-122.076;2022-11-11T13:53:47;101750.78;;;18.12;37.10
64516;BME280;50891;37.380;-122.076;2022-11-11T13:56:41;101757.47;;;18.16;37.23
64516;BME280;50891;37.380;-122.076;2022-11-11T13:59:28;101752.84;;;18.26;36.96
64516;BME280;50891;37.380;-122.076;2022-11-11T14:12:50;101756.28;;;18.79;38.10
64516;BME280;50891;37.380;-122.076;2022-11-11T14:20:48;101745.34;;;18.99;38.26
64516;BME280;50891;37.380;-122.076;2022-11-11T14:25:49;101750.03;;;19.05;38.44
64516;BME280;50891;37.380;-122.076;2022-11-11T14:30:52;101736.88;;;19.11;38.70
64516;BME280;50891;37.380;-122.076;2022-11-11T14:36:43;101744.22;;;19.17;38.44
64516;BME280;50891;37.380;-122.076;2022-11-11T14:41:57;101756.22;;;19.22;38.63
64516;BME280;50891;37.380;-122.076;2022-11-11T14:52:37;101747.09;;;19.32;38.75